createdAt,value
2023-04-12T00:02:40.360Z,7.70
2023-04-12T00:06:48.519Z,7.70
2023-04-12T00:10:51.949Z,7.60
2023-04-12T00:14:56.102Z,7.40
2023-04-12T00:18:58.876Z,7.40
2023-04-12T00:23:02.370Z,7.20
2023-04-12T00:27:05.916Z,7.30
2023-04-12T00:31:10.127Z,7.50
2023-04-12T00:35:12.941Z,7.60
2023-04-12T00:39:15.752Z,7.60
2023-04-12T00:43:18.896Z,7.60
2023-04-12T00:47:23.837Z,7.60
2023-04-12T00:51:33.176Z,7.50
2023-04-12T00:55:36.096Z,7.40
2023-04-12T00:59:39.397Z,7.50
2023-04-12T01:03:43.858Z,7.50
2023-04-12T01:07:54.113Z,7.50
2023-04-12T01:12:09.847Z,7.70
2023-04-12T01:16:27.432Z,7.70
2023-04-12T01:20:37.421Z,7.60
2023-04-12T01:24:52.977Z,7.70
2023-04-12T01:29:14.316Z,7.80
2023-04-12T01:33:18.797Z,7.80
2023-04-12T01:37:23.093Z,8.00
2023-04-12T01:41:26.043Z,7.90
2023-04-12T01:45:30.544Z,7.90
2023-04-12T01:49:39.448Z,7.80
2023-04-12T01:53:49.796Z,7.80
2023-04-12T01:57:54.359Z,7.80
2023-04-12T02:01:59.450Z,7.70
2023-04-12T02:06:03.784Z,7.70
2023-04-12T02:10:07.518Z,7.70
2023-04-12T02:14:10.330Z,7.70
2023-04-12T02:18:16.989Z,7.70
2023-04-12T02:22:19.931Z,7.70
2023-04-12T02:26:23.737Z,7.70
2023-04-12T02:30:27.390Z,7.90
2023-04-12T02:34:34.201Z,7.90
2023-04-12T02:38:46.212Z,7.70
2023-04-12T02:42:49.791Z,7.80
2023-04-12T02:46:52.930Z,7.70
2023-04-12T02:50:57.268Z,7.70
2023-04-12T02:55:02.123Z,7.60
2023-04-12T02:59:06.829Z,7.50
2023-04-12T03:03:26.708Z,7.60
2023-04-12T03:07:35.765Z,7.60
2023-04-12T03:11:41.668Z,7.30
2023-04-12T03:15:45.666Z,7.40
2023-04-12T03:19:50.119Z,7.20
2023-04-12T03:23:57.895Z,7.40
2023-04-12T03:28:01.244Z,7.40
2023-04-12T03:32:20.735Z,7.00
2023-04-12T03:36:23.956Z,7.30
2023-04-12T03:40:36.662Z,7.10
2023-04-12T03:44:39.815Z,7.10
2023-04-12T03:48:46.945Z,6.90
2023-04-12T03:52:51.531Z,7.00
2023-04-12T03:56:56.634Z,7.10
2023-04-12T04:01:06.200Z,6.90
2023-04-12T04:05:12.979Z,6.90
2023-04-12T04:09:16.170Z,6.80
2023-04-12T04:13:20.665Z,6.80
2023-04-12T04:17:25.130Z,6.80
2023-04-12T04:21:30.484Z,6.80
2023-04-12T04:25:34.522Z,6.80
2023-04-12T04:29:45.387Z,6.90
2023-04-12T04:33:50.815Z,6.50
2023-04-12T04:37:55.662Z,6.60
2023-04-12T04:41:58.576Z,6.50
2023-04-12T04:46:25.805Z,6.50
2023-04-12T04:50:29.093Z,6.50
2023-04-12T04:54:33.129Z,6.40
2023-04-12T04:58:37.201Z,6.60
2023-04-12T05:02:43.922Z,6.70
2023-04-12T05:06:50.562Z,6.60
2023-04-12T05:10:58.078Z,6.70
2023-04-12T05:15:11.450Z,6.60
2023-04-12T05:19:16.967Z,6.60
2023-04-12T05:23:19.989Z,6.60
2023-04-12T05:27:22.935Z,6.70
2023-04-12T05:31:27.978Z,6.60
2023-04-12T05:35:32.520Z,6.70
2023-04-12T05:39:36.121Z,6.70
2023-04-12T05:43:38.916Z,6.90
2023-04-12T05:47:43.962Z,6.90
2023-04-12T05:51:49.314Z,6.90
2023-04-12T05:55:57.321Z,6.80
2023-04-12T06:00:00.384Z,6.90
2023-04-12T06:04:06.145Z,7.00
2023-04-12T06:08:12.814Z,7.10
2023-04-12T06:12:17.398Z,7.10
2023-04-12T06:16:21.034Z,7.10
2023-04-12T06:20:23.975Z,7.10
2023-04-12T06:24:28.537Z,7.10
2023-04-12T06:28:32.194Z,7.20
2023-04-12T06:32:35.072Z,7.30
2023-04-12T06:36:40.128Z,7.30
2023-04-12T06:40:44.530Z,7.40
2023-04-12T06:44:47.329Z,7.50
2023-04-12T06:48:50.074Z,7.50
2023-04-12T06:52:52.917Z,7.60
2023-04-12T06:56:57.678Z,7.60
2023-04-12T07:01:06.338Z,7.80
2023-04-12T07:05:09.977Z,7.90
2023-04-12T07:09:12.918Z,7.90
2023-04-12T07:13:17.625Z,7.80
2023-04-12T07:17:21.199Z,8.00
2023-04-12T07:21:24.048Z,8.20
2023-04-12T07:25:26.980Z,8.10
2023-04-12T07:29:31.273Z,8.10
2023-04-12T07:33:35.759Z,8.10
2023-04-12T07:37:38.860Z,8.30
2023-04-12T07:41:46.408Z,8.50
2023-04-12T07:45:50.658Z,8.60
2023-04-12T07:49:53.449Z,8.70
2023-04-12T07:53:56.548Z,8.80
2023-04-12T07:57:59.557Z,8.80
2023-04-12T08:02:06.145Z,8.90
2023-04-12T08:06:10.260Z,8.90
2023-04-12T08:10:13.238Z,9.00
2023-04-12T08:14:16.134Z,9.00
2023-04-12T08:18:21.029Z,9.00
2023-04-12T08:22:23.868Z,9.00
2023-04-12T08:26:28.730Z,9.10
2023-04-12T08:30:31.771Z,9.20
2023-04-12T08:34:36.287Z,9.20
2023-04-12T08:38:45.490Z,9.20
2023-04-12T08:42:49.495Z,9.20
2023-04-12T08:46:53.464Z,9.10
2023-04-12T08:50:58.160Z,9.30
2023-04-12T08:55:03.955Z,9.50
2023-04-12T08:59:06.977Z,9.40
2023-04-12T09:03:10.595Z,9.40
2023-04-12T09:07:14.885Z,9.90
2023-04-12T09:11:25.712Z,10.10
2023-04-12T09:15:28.628Z,10.30
2023-04-12T09:19:35.638Z,10.70
2023-04-12T09:23:39.793Z,11.30
2023-04-12T09:27:49.540Z,11.60
2023-04-12T09:32:02.232Z,12.00
2023-04-12T09:36:09.285Z,12.00
2023-04-12T09:40:14.208Z,11.90
2023-04-12T09:44:30.218Z,12.10
2023-04-12T09:48:33.042Z,12.10
2023-04-12T09:52:40.230Z,12.50
2023-04-12T09:56:45.546Z,13.40
2023-04-12T10:00:49.138Z,13.60
2023-04-12T10:04:52.277Z,13.60
2023-04-12T10:08:56.442Z,13.70
2023-04-12T10:13:02.336Z,14.00
2023-04-12T10:17:06.749Z,15.10
2023-04-12T10:21:09.873Z,15.70
2023-04-12T10:25:14.014Z,15.70
2023-04-12T10:29:31.901Z,15.90
2023-04-12T10:33:34.798Z,16.20
2023-04-12T10:38:02.165Z,16.70
2023-04-12T10:42:19.060Z,17.10
2023-04-12T10:46:51.070Z,17.00
2023-04-12T10:51:14.069Z,15.90
2023-04-12T10:55:35.452Z,15.60
2023-04-12T10:59:55.957Z,15.70
2023-04-12T11:04:18.073Z,15.50
2023-04-12T11:08:30.223Z,15.20
2023-04-12T11:13:08.916Z,14.90
2023-04-12T11:17:23.841Z,15.10
2023-04-12T11:21:29.280Z,15.40
2023-04-12T11:25:32.870Z,15.20
2023-04-12T11:29:35.837Z,15.20
2023-04-12T11:33:40.398Z,15.20
2023-04-12T11:37:44.836Z,15.10
2023-04-12T11:41:48.166Z,15.30
2023-04-12T11:45:56.312Z,15.20
2023-04-12T11:50:00.004Z,15.30
2023-04-12T11:54:04.648Z,15.30
2023-04-12T11:58:07.909Z,15.50
2023-04-12T12:02:22.006Z,15.70
2023-04-12T12:06:27.536Z,16.00
2023-04-12T12:10:46.412Z,16.00
2023-04-12T12:14:55.045Z,15.60
2023-04-12T12:18:58.417Z,15.90
2023-04-12T12:23:01.293Z,16.10
2023-04-12T12:27:05.720Z,15.80
2023-04-12T12:31:12.367Z,15.50
2023-04-12T12:35:15.546Z,16.10
2023-04-12T12:39:18.342Z,16.70
2023-04-12T12:43:22.518Z,16.60
2023-04-12T12:47:25.465Z,16.40
2023-04-12T12:51:28.330Z,16.30
2023-04-12T12:55:32.542Z,16.40
2023-04-12T12:59:36.732Z,16.50
2023-04-12T13:03:39.645Z,16.60
2023-04-12T13:07:43.396Z,16.50
2023-04-12T13:11:46.287Z,16.40
2023-04-12T13:15:52.793Z,16.40
2023-04-12T13:19:55.865Z,16.30
2023-04-12T13:23:58.642Z,16.00
2023-04-12T13:28:01.404Z,15.70
2023-04-12T13:32:05.890Z,15.40
2023-04-12T13:36:09.175Z,15.20
2023-04-12T13:40:12.334Z,15.20
2023-04-12T13:44:15.349Z,15.10
2023-04-12T13:48:20.013Z,15.20
2023-04-12T13:52:22.866Z,15.40
2023-04-12T13:56:26.437Z,15.50
2023-04-12T14:00:30.029Z,16.40
2023-04-12T14:04:34.166Z,17.60
2023-04-12T14:08:37.244Z,17.50
2023-04-12T14:12:40.332Z,17.40
2023-04-12T14:16:43.108Z,17.30
2023-04-12T14:20:52.103Z,17.30
2023-04-12T14:24:55.068Z,17.10
2023-04-12T14:28:57.994Z,17.00
2023-04-12T14:33:00.957Z,16.60
2023-04-12T14:37:05.804Z,16.50
2023-04-12T14:41:10.403Z,16.40
2023-04-12T14:45:13.272Z,16.30
2023-04-12T14:49:16.109Z,16.20
2023-04-12T14:53:21.064Z,15.90
2023-04-12T14:57:23.862Z,15.80
2023-04-12T15:01:27.606Z,15.70
2023-04-12T15:05:30.623Z,15.50
2023-04-12T15:09:34.984Z,15.60
2023-04-12T15:13:39.361Z,15.50
2023-04-12T15:17:42.541Z,15.40
2023-04-12T15:21:46.733Z,15.40
2023-04-12T15:25:50.914Z,15.30
2023-04-12T15:29:53.781Z,15.30
2023-04-12T15:34:01.302Z,15.10
2023-04-12T15:38:04.468Z,15.10
2023-04-12T15:42:08.738Z,15.00
2023-04-12T15:46:14.729Z,14.90
2023-04-12T15:50:21.129Z,14.90
2023-04-12T15:54:23.992Z,14.90
2023-04-12T15:58:28.215Z,14.80
2023-04-12T16:02:31.306Z,14.90
2023-04-12T16:06:35.446Z,14.90
2023-04-12T16:10:39.367Z,14.90
2023-04-12T16:14:44.528Z,14.90
2023-04-12T16:18:47.463Z,14.80
2023-04-12T16:22:54.178Z,14.90
2023-04-12T16:26:57.360Z,14.70
2023-04-12T16:31:02.079Z,14.70
2023-04-12T16:35:05.746Z,14.70
2023-04-12T16:39:10.650Z,14.60
2023-04-12T16:43:13.786Z,14.70
2023-04-12T16:47:18.269Z,14.50
2023-04-12T16:51:22.625Z,14.60
2023-04-12T16:55:25.462Z,14.50
2023-04-12T16:59:28.397Z,14.50
2023-04-12T17:03:32.628Z,14.50
2023-04-12T17:07:35.499Z,14.50
2023-04-12T17:11:38.281Z,14.50
2023-04-12T17:15:41.055Z,14.40
2023-04-12T17:19:45.861Z,14.40
2023-04-12T17:23:49.986Z,14.30
2023-04-12T17:27:53.229Z,14.30
2023-04-12T17:31:56.401Z,14.30
2023-04-12T17:36:01.865Z,14.30
2023-04-12T17:40:06.155Z,14.10
2023-04-12T17:44:09.011Z,14.10
2023-04-12T17:48:14.418Z,14.10
2023-04-12T17:52:18.661Z,14.00
2023-04-12T17:56:21.486Z,13.90
2023-04-12T18:00:25.255Z,14.00
2023-04-12T18:04:29.652Z,13.80
2023-04-12T18:08:33.892Z,14.00
2023-04-12T18:12:38.561Z,13.80
2023-04-12T18:16:41.716Z,13.60
2023-04-12T18:20:44.616Z,13.60
2023-04-12T18:24:48.883Z,13.60
2023-04-12T18:28:52.041Z,13.50
2023-04-12T18:32:55.327Z,13.40
2023-04-12T18:36:59.214Z,13.10
2023-04-12T18:41:04.113Z,13.40
2023-04-12T18:45:09.318Z,13.30
2023-04-12T18:49:14.120Z,13.10
2023-04-12T18:53:17.176Z,12.90
2023-04-12T18:57:21.920Z,12.60
2023-04-12T19:01:25.487Z,12.70
2023-04-12T19:05:28.820Z,12.80
2023-04-12T19:09:31.961Z,12.50
2023-04-12T19:13:37.036Z,12.30
2023-04-12T19:17:40.155Z,12.60
2023-04-12T19:21:43.042Z,12.50
2023-04-12T19:25:47.074Z,12.20
2023-04-12T19:29:52.641Z,12.40
2023-04-12T19:33:55.898Z,12.60
2023-04-12T19:37:59.332Z,12.30
2023-04-12T19:42:03.403Z,12.20
2023-04-12T19:46:08.194Z,12.40
2023-04-12T19:50:12.021Z,12.00
2023-04-12T19:54:15.086Z,12.00
2023-04-12T19:58:17.876Z,12.10
2023-04-12T20:02:22.147Z,11.90
2023-04-12T20:06:28.731Z,12.00
2023-04-12T20:10:31.373Z,12.00
2023-04-12T20:14:36.810Z,11.90
2023-04-12T20:18:41.335Z,11.70
2023-04-12T20:22:46.441Z,11.70
2023-04-12T20:26:49.257Z,11.50
2023-04-12T20:30:53.205Z,11.50
2023-04-12T20:34:58.131Z,11.50
2023-04-12T20:39:01.656Z,11.40
2023-04-12T20:43:06.025Z,11.50
2023-04-12T20:47:09.057Z,11.40
2023-04-12T20:51:13.975Z,11.50
2023-04-12T20:55:17.289Z,11.60
2023-04-12T20:59:21.971Z,11.50
2023-04-12T21:03:24.839Z,11.30
2023-04-12T21:07:29.107Z,11.30
2023-04-12T21:11:32.171Z,11.30
2023-04-12T21:15:35.406Z,11.20
2023-04-12T21:19:40.965Z,11.10
2023-04-12T21:23:45.196Z,11.20
2023-04-12T21:27:49.002Z,11.10
2023-04-12T21:31:51.890Z,11.20
2023-04-12T21:35:55.905Z,11.10
2023-04-12T21:40:00.080Z,11.10
2023-04-12T21:44:02.879Z,11.10
2023-04-12T21:48:05.954Z,11.30
2023-04-12T21:52:08.850Z,11.10
2023-04-12T21:56:13.041Z,11.10
2023-04-12T22:00:18.237Z,11.00
2023-04-12T22:04:21.371Z,10.90
2023-04-12T22:08:24.207Z,10.80
2023-04-12T22:12:28.514Z,10.80
2023-04-12T22:16:32.864Z,10.70
2023-04-12T22:20:35.770Z,10.90
2023-04-12T22:24:38.823Z,10.90
2023-04-12T22:28:44.385Z,11.00
2023-04-12T22:32:47.329Z,10.70
2023-04-12T22:36:51.817Z,10.70
2023-04-12T22:41:02.141Z,10.50
2023-04-12T22:45:09.723Z,10.30
2023-04-12T22:49:12.708Z,10.20
2023-04-12T22:53:15.808Z,10.30
2023-04-12T22:57:18.695Z,10.20
2023-04-12T23:01:22.866Z,10.40
2023-04-12T23:05:26.156Z,10.20
2023-04-12T23:09:29.425Z,10.00
2023-04-12T23:13:34.125Z,10.00
2023-04-12T23:17:38.301Z,10.10
2023-04-12T23:21:41.190Z,10.10
2023-04-12T23:25:45.405Z,10.20
2023-04-12T23:29:48.180Z,10.20
2023-04-12T23:33:52.302Z,10.30
2023-04-12T23:37:56.049Z,10.10
2023-04-12T23:41:59.170Z,10.10
2023-04-12T23:46:03.091Z,10.20
2023-04-12T23:50:08.359Z,10.00
2023-04-12T23:54:11.201Z,9.90
2023-04-12T23:58:14.319Z,10.00
